MET'MAP v2.0
soon released !

Expected late october,
this new version will be
more efficient, smarter,
and hosted on a brand new
server x3 powerfull...
...and still free !


Not compatible ?
Try the mobile version !

LOG IN : | Subscribe | Disclaimer | Who is Orbifly ? |
ICAO code :

TAF - LDLO Lošinj Island Airport - 07 Jun 2020 06:16 UTC
Data Sources :     NOAA   


- Airport Elevation : 151 ft
- IATA code : LSZ
- No reported NOTAMs.


LDLO - Lošinj Island Airport

Latest METAR recorded : 2015/08/09 18:00 LDLO 091800Z 32007KT CAVOK 29/23 Q1013
TAF TAF LDLO
Valid from the 06 at 12:00 until the 07 at 12:00 UTC


061125Z 0612/0712 20007KT 9999 FEW020 TX23/0613Z TN18/0704Z
TEMPO 0612/0616 30008KT
BECMG 0618/0620 16010KT

Source NOAA


MET'MAP, your aeronautical weather chart ! - Copyright ORBIFLY December 2007

Programming & Development : Alexandra Zaïnal
Co-Developer : Marc-Olivier Méhu
Technical & hardware support : Manuel Goepfert
Concept & Financing : Baudouin d'Aumeries